createdAt,value
2023-05-08T00:01:43.396Z,102192.78
2023-05-08T00:04:12.298Z,102192.78
2023-05-08T00:06:40.796Z,102198.03
2023-05-08T00:09:09.914Z,102196.31
2023-05-08T00:11:38.967Z,102192.84
2023-05-08T00:14:07.930Z,102185.88
2023-05-08T00:16:37.750Z,102191.16
2023-05-08T00:19:06.623Z,102187.69
2023-05-08T00:21:35.017Z,102182.44
2023-05-08T00:24:03.376Z,102185.97
2023-05-08T00:26:31.937Z,102180.72
2023-05-08T00:29:00.732Z,102184.25
2023-05-08T00:31:29.099Z,102189.53
2023-05-08T00:33:58.933Z,102186.88
2023-05-08T00:36:28.491Z,102181.56
2023-05-08T00:38:56.870Z,102185.03
2023-05-08T00:41:25.323Z,102190.28
2023-05-08T00:43:54.165Z,102192.00
2023-05-08T00:46:23.035Z,102191.06
2023-05-08T00:48:51.817Z,102185.72
2023-05-08T00:51:22.273Z,102190.06
2023-05-08T00:53:51.561Z,102196.09
2023-05-08T00:56:22.037Z,102197.75
2023-05-08T00:58:51.545Z,102195.00
2023-05-08T01:01:20.658Z,102185.25
2023-05-08T01:03:49.962Z,102192.16
2023-05-08T01:06:20.649Z,102186.84
2023-05-08T01:08:49.680Z,102185.84
2023-05-08T01:11:25.594Z,102173.44
2023-05-08T01:14:09.042Z,102178.63
2023-05-08T01:16:45.527Z,102178.53
2023-05-08T01:19:55.482Z,102180.13
2023-05-08T01:22:47.888Z,102185.28
2023-05-08T01:25:52.661Z,102187.78
2023-05-08T01:29:14.455Z,102194.69
2023-05-08T01:32:08.762Z,102191.09
2023-05-08T01:34:46.516Z,102195.41
2023-05-08T01:37:23.472Z,102190.97
2023-05-08T01:40:00.775Z,102194.41
2023-05-08T01:42:40.774Z,102191.75
2023-05-08T01:45:15.723Z,102198.69
2023-05-08T01:47:52.285Z,102189.88
2023-05-08T01:50:28.249Z,102190.69
2023-05-08T01:53:04.569Z,102187.16
2023-05-08T01:55:37.320Z,102186.22
2023-05-08T01:58:11.022Z,102178.31
2023-05-08T02:00:42.144Z,102172.97
2023-05-08T02:03:13.958Z,102175.59
2023-05-08T02:05:44.372Z,102174.69
2023-05-08T02:08:15.657Z,102174.66
2023-05-08T02:10:46.414Z,102177.22
2023-05-08T02:13:19.137Z,102183.28
2023-05-08T02:15:49.906Z,102185.00
2023-05-08T02:18:26.339Z,102193.69
2023-05-08T02:20:57.447Z,102182.22
2023-05-08T02:23:27.938Z,102188.31
2023-05-08T02:25:57.370Z,102190.00
2023-05-08T02:28:27.538Z,102196.09
2023-05-08T02:30:58.130Z,102196.00
2023-05-08T02:33:30.529Z,102198.63
2023-05-08T02:36:00.479Z,102203.78
2023-05-08T02:38:30.156Z,102206.41
2023-05-08T02:41:03.502Z,102198.50
2023-05-08T02:43:32.677Z,102194.94
2023-05-08T02:46:10.884Z,102195.78
2023-05-08T02:48:49.539Z,102200.97
2023-05-08T02:51:28.147Z,102200.06
2023-05-08T02:54:02.847Z,102193.00
2023-05-08T02:56:40.482Z,102199.94
2023-05-08T02:59:20.769Z,102205.13
2023-05-08T03:01:58.182Z,102205.94
2023-05-08T03:04:36.531Z,102201.50
2023-05-08T03:07:06.652Z,102197.09
2023-05-08T03:09:45.919Z,102204.03
2023-05-08T03:12:24.733Z,102197.91
2023-05-08T03:15:02.360Z,102203.06
2023-05-08T03:17:34.925Z,102206.56
2023-05-08T03:20:09.079Z,102204.78
2023-05-08T03:22:40.136Z,102203.03
2023-05-08T03:25:11.842Z,102212.63
2023-05-08T03:27:41.646Z,102211.75
2023-05-08T03:30:12.784Z,102208.25
2023-05-08T03:32:43.423Z,102205.63
2023-05-08T03:35:13.591Z,102203.94
2023-05-08T03:37:42.868Z,102214.47
2023-05-08T03:40:12.417Z,102207.53
2023-05-08T03:42:43.151Z,102204.91
2023-05-08T03:45:13.572Z,102207.59
2023-05-08T03:47:44.315Z,102205.84
2023-05-08T03:50:15.771Z,102212.88
2023-05-08T03:52:44.888Z,102199.75
2023-05-08T03:55:13.509Z,102211.94
2023-05-08T03:57:49.536Z,102214.56
2023-05-08T04:00:30.816Z,102212.78
2023-05-08T04:03:17.001Z,102190.00
2023-05-08T04:06:04.255Z,102193.41
2023-05-08T04:08:43.356Z,102202.13
2023-05-08T04:11:20.296Z,102195.97
2023-05-08T04:14:03.251Z,102202.06
2023-05-08T04:16:39.900Z,102202.88
2023-05-08T04:19:13.579Z,102197.63
2023-05-08T04:21:45.923Z,102198.50
2023-05-08T04:24:16.704Z,102201.13
2023-05-08T04:26:47.037Z,102210.72
2023-05-08T04:29:16.078Z,102208.06
2023-05-08T04:31:45.297Z,102212.44
2023-05-08T04:34:14.190Z,102204.56
2023-05-08T04:36:44.499Z,102207.25
2023-05-08T04:39:12.927Z,102203.78
2023-05-08T04:41:41.317Z,102197.72
2023-05-08T04:44:09.891Z,102197.81
2023-05-08T04:46:38.890Z,102197.91
2023-05-08T04:49:07.485Z,102192.72
2023-05-08T04:51:37.264Z,102205.06
2023-05-08T04:54:07.244Z,102199.03
2023-05-08T04:56:36.208Z,102196.47
2023-05-08T04:59:04.579Z,102191.31
2023-05-08T05:01:33.290Z,102189.66
2023-05-08T05:04:01.874Z,102194.16
2023-05-08T05:06:31.353Z,102197.75
2023-05-08T05:08:59.786Z,102193.47
2023-05-08T05:11:29.788Z,102196.19
2023-05-08T05:13:58.199Z,102195.44
2023-05-08T05:16:27.450Z,102202.53
2023-05-08T05:18:56.767Z,102208.81
2023-05-08T05:21:25.920Z,102204.56
2023-05-08T05:23:54.907Z,102200.28
2023-05-08T05:26:23.405Z,102202.13
2023-05-08T05:28:53.260Z,102204.84
2023-05-08T05:31:22.115Z,102203.22
2023-05-08T05:33:51.168Z,102214.75
2023-05-08T05:36:19.913Z,102214.88
2023-05-08T05:38:48.887Z,102222.03
2023-05-08T05:41:17.488Z,102220.44
2023-05-08T05:43:45.883Z,102218.81
2023-05-08T05:46:15.767Z,102224.19
2023-05-08T05:48:44.385Z,102216.38
2023-05-08T05:51:13.122Z,102222.59
2023-05-08T05:53:41.651Z,102230.63
2023-05-08T05:56:09.983Z,102223.72
2023-05-08T05:58:40.492Z,102230.91
2023-05-08T06:01:08.846Z,102226.63
2023-05-08T06:03:39.623Z,102233.75
2023-05-08T06:06:08.728Z,102227.69
2023-05-08T06:08:37.189Z,102235.69
2023-05-08T06:11:05.600Z,102217.34
2023-05-08T06:13:34.059Z,102228.00
2023-05-08T06:16:02.546Z,102227.19
2023-05-08T06:18:31.439Z,102227.31
2023-05-08T06:21:01.553Z,102229.19
2023-05-08T06:23:30.216Z,102230.19
2023-05-08T06:26:01.937Z,102222.28
2023-05-08T06:28:30.311Z,102221.56
2023-05-08T06:30:58.833Z,102225.31
2023-05-08T06:33:27.993Z,102225.53
2023-05-08T06:35:56.682Z,102224.84
2023-05-08T06:38:27.064Z,102223.22
2023-05-08T06:40:56.149Z,102219.84
2023-05-08T06:43:24.918Z,102225.28
2023-05-08T06:45:54.070Z,102227.97
2023-05-08T06:48:22.709Z,102218.38
2023-05-08T06:50:53.056Z,102221.06
2023-05-08T06:53:22.188Z,102215.84
2023-05-08T06:55:52.916Z,102219.41
2023-05-08T06:58:21.425Z,102215.06
2023-05-08T07:00:50.332Z,102215.97
2023-05-08T07:03:19.057Z,102213.38
2023-05-08T07:05:47.470Z,102221.34
2023-05-08T07:08:15.954Z,102218.69
2023-05-08T07:10:44.976Z,102217.84
2023-05-08T07:13:14.864Z,102218.75
2023-05-08T07:15:43.476Z,102219.63
2023-05-08T07:18:12.099Z,102209.06
2023-05-08T07:20:40.686Z,102214.34
2023-05-08T07:23:09.953Z,102211.69
2023-05-08T07:25:38.341Z,102211.72
2023-05-08T07:28:08.095Z,102217.00
2023-05-08T07:30:37.946Z,102204.59
2023-05-08T07:33:06.775Z,102207.22
2023-05-08T07:35:35.636Z,102207.19
2023-05-08T07:38:04.110Z,102201.88
2023-05-08T07:40:32.513Z,102208.88
2023-05-08T07:43:01.182Z,102215.03
2023-05-08T07:45:29.847Z,102203.53
2023-05-08T07:48:00.601Z,102204.34
2023-05-08T07:50:29.478Z,102198.13
2023-05-08T07:52:58.028Z,102195.38
2023-05-08T07:55:27.331Z,102194.44
2023-05-08T07:57:56.045Z,102189.97
2023-05-08T08:00:24.968Z,102189.03
2023-05-08T08:02:54.074Z,102189.00
2023-05-08T08:05:24.864Z,102187.16
2023-05-08T08:07:53.935Z,102188.78
2023-05-08T08:10:22.692Z,102194.81
2023-05-08T08:12:51.486Z,102197.25
2023-05-08T08:15:21.016Z,102191.78
2023-05-08T08:17:49.804Z,102188.06
2023-05-08T08:20:18.625Z,102186.09
2023-05-08T08:22:48.665Z,102187.81
2023-05-08T08:25:17.925Z,102181.56
2023-05-08T08:27:46.350Z,102183.22
2023-05-08T08:30:17.648Z,102184.84
2023-05-08T08:32:49.668Z,102179.28
2023-05-08T08:35:18.491Z,102181.91
2023-05-08T08:37:48.453Z,102182.56
2023-05-08T08:40:17.116Z,102182.34
2023-05-08T08:42:46.312Z,102177.75
2023-05-08T08:45:14.955Z,102180.31
2023-05-08T08:47:47.016Z,102184.59
2023-05-08T08:50:16.898Z,102182.69
2023-05-08T08:52:57.280Z,102183.31
2023-05-08T08:55:27.683Z,102178.47
2023-05-08T08:58:07.246Z,102190.97
2023-05-08T09:00:38.610Z,102189.31
2023-05-08T09:03:08.028Z,102195.72
2023-05-08T09:05:37.759Z,102187.31
2023-05-08T09:08:08.324Z,102183.50
2023-05-08T09:10:37.546Z,102179.72
2023-05-08T09:13:06.074Z,102181.56
2023-05-08T09:15:35.431Z,102172.88
2023-05-08T09:18:04.192Z,102178.34
2023-05-08T09:20:32.857Z,102180.94
2023-05-08T09:23:03.915Z,102182.81
2023-05-08T09:25:47.538Z,102177.25
2023-05-08T09:28:21.017Z,102174.34
2023-05-08T09:30:55.388Z,102172.50
2023-05-08T09:33:26.202Z,102169.84
2023-05-08T09:35:55.395Z,102163.34
2023-05-08T09:38:38.618Z,102159.78
2023-05-08T09:41:17.627Z,102165.84
2023-05-08T09:44:02.010Z,102158.25
2023-05-08T09:46:30.978Z,102162.94
2023-05-08T09:49:01.591Z,102154.09
2023-05-08T09:51:32.530Z,102148.59
2023-05-08T09:54:04.306Z,102158.34
2023-05-08T09:56:36.606Z,102149.59
2023-05-08T09:59:06.904Z,102144.13
2023-05-08T10:01:36.901Z,102145.75
2023-05-08T10:04:06.461Z,102150.09
2023-05-08T10:06:36.566Z,102152.72
2023-05-08T10:09:10.416Z,102142.91
2023-05-08T10:11:41.366Z,102146.31
2023-05-08T10:14:10.403Z,102141.69
2023-05-08T10:16:43.768Z,102139.78
2023-05-08T10:19:16.347Z,102136.16
2023-05-08T10:21:48.605Z,102129.66
2023-05-08T10:24:19.751Z,102142.88
2023-05-08T10:27:07.103Z,102139.91
2023-05-08T10:29:44.025Z,102135.13
2023-05-08T10:32:14.516Z,102143.63
2023-05-08T10:34:45.455Z,102137.03
2023-05-08T10:37:14.644Z,102136.53
2023-05-08T10:39:46.102Z,102128.91
2023-05-08T10:42:16.270Z,102127.69
2023-05-08T10:44:45.087Z,102128.38
2023-05-08T10:47:22.614Z,102124.00
2023-05-08T10:50:03.936Z,102122.81
2023-05-08T10:52:46.407Z,102124.03
2023-05-08T10:55:22.760Z,102119.81
2023-05-08T10:58:13.387Z,102117.56
2023-05-08T11:01:14.816Z,102117.13
2023-05-08T11:03:50.606Z,102112.34
2023-05-08T11:06:46.806Z,102117.22
2023-05-08T11:09:23.579Z,102109.84
2023-05-08T11:12:17.975Z,102098.84
2023-05-08T11:15:00.363Z,102108.28
2023-05-08T11:17:29.032Z,102108.09
2023-05-08T11:20:00.294Z,102109.97
2023-05-08T11:22:31.444Z,102109.97
2023-05-08T11:25:03.205Z,102107.78
2023-05-08T11:27:55.016Z,102116.06
2023-05-08T11:30:28.645Z,102117.09
2023-05-08T11:33:16.727Z,102112.09
2023-05-08T11:35:49.481Z,102107.94
2023-05-08T11:38:22.387Z,102106.00
2023-05-08T11:40:59.738Z,102113.69
2023-05-08T11:43:48.561Z,102105.22
2023-05-08T11:46:21.880Z,102104.66
2023-05-08T11:48:50.730Z,102106.72
2023-05-08T11:51:20.917Z,102104.88
2023-05-08T11:53:50.049Z,102097.75
2023-05-08T11:56:19.491Z,102100.91
2023-05-08T11:58:48.194Z,102092.19
2023-05-08T12:01:22.331Z,102097.78
2023-05-08T12:03:51.014Z,102094.56
2023-05-08T12:06:21.360Z,102094.72
2023-05-08T12:08:50.253Z,102092.47
2023-05-08T12:11:25.255Z,102087.41
2023-05-08T12:13:55.241Z,102087.69
2023-05-08T12:16:26.679Z,102088.09
2023-05-08T12:18:58.232Z,102089.09
2023-05-08T12:21:27.615Z,102076.91
2023-05-08T12:23:56.389Z,102071.63
2023-05-08T12:26:25.166Z,102068.41
2023-05-08T12:28:57.012Z,102073.81
2023-05-08T12:31:27.469Z,102069.72
2023-05-08T12:33:56.691Z,102064.72
2023-05-08T12:36:25.255Z,102055.97
2023-05-08T12:38:54.081Z,102059.34
2023-05-08T12:41:26.400Z,102066.44
2023-05-08T12:43:55.199Z,102065.38
2023-05-08T12:46:28.217Z,102064.47
2023-05-08T12:49:04.722Z,102055.88
2023-05-08T12:51:33.250Z,102051.78
2023-05-08T12:54:01.647Z,102057.31
2023-05-08T12:56:29.919Z,102046.88
2023-05-08T12:59:00.951Z,102051.81
2023-05-08T13:01:32.179Z,102038.19
2023-05-08T13:04:03.042Z,102048.81
2023-05-08T13:06:31.893Z,102037.69
2023-05-08T13:09:00.303Z,102035.78
2023-05-08T13:11:34.059Z,102033.00
2023-05-08T13:14:02.614Z,102026.88
2023-05-08T13:16:32.442Z,102027.91
2023-05-08T13:19:00.741Z,102027.47
2023-05-08T13:21:29.160Z,102019.00
2023-05-08T13:23:58.096Z,102022.50
2023-05-08T13:26:27.779Z,102010.09
2023-05-08T13:28:56.714Z,102017.88
2023-05-08T13:31:25.445Z,102013.38
2023-05-08T13:33:55.229Z,102009.47
2023-05-08T13:36:25.049Z,102004.31
2023-05-08T13:38:55.315Z,102007.75
2023-05-08T13:41:23.838Z,102006.94
2023-05-08T13:43:52.862Z,101998.22
2023-05-08T13:46:21.616Z,101990.44
2023-05-08T13:48:50.280Z,101989.69
2023-05-08T13:51:20.331Z,101983.91
2023-05-08T13:53:48.749Z,101981.75
2023-05-08T13:56:17.198Z,101976.13
2023-05-08T13:58:45.584Z,101976.88
2023-05-08T14:01:25.482Z,101970.88
2023-05-08T14:03:55.559Z,101971.09
2023-05-08T14:06:26.134Z,101968.91
2023-05-08T14:08:56.886Z,101965.03
2023-05-08T14:11:26.980Z,101967.31
2023-05-08T14:13:55.931Z,101957.75
2023-05-08T14:16:25.073Z,101956.09
2023-05-08T14:18:54.130Z,101943.59
2023-05-08T14:21:24.582Z,101946.91
2023-05-08T14:23:53.471Z,101953.41
2023-05-08T14:26:22.260Z,101951.75
2023-05-08T14:28:51.436Z,101951.94
2023-05-08T14:31:20.278Z,101953.59
2023-05-08T14:33:48.834Z,101948.81
2023-05-08T14:36:17.374Z,101950.66
2023-05-08T14:38:47.117Z,101946.50
2023-05-08T14:41:15.662Z,101951.63
2023-05-08T14:43:44.073Z,101941.91
2023-05-08T14:46:12.670Z,101939.03
2023-05-08T14:48:41.255Z,101943.44
2023-05-08T14:51:09.673Z,101941.78
2023-05-08T14:53:38.136Z,101937.84
2023-05-08T14:56:09.184Z,101940.72
2023-05-08T14:58:37.822Z,101939.75
2023-05-08T15:01:06.923Z,101940.53
2023-05-08T15:03:35.892Z,101937.44
2023-05-08T15:06:05.295Z,101940.06
2023-05-08T15:08:34.115Z,101934.66
2023-05-08T15:11:02.571Z,101937.53
2023-05-08T15:13:32.414Z,101933.88
2023-05-08T15:16:05.482Z,101935.97
2023-05-08T15:18:33.972Z,101933.22
2023-05-08T15:21:02.599Z,101942.09
2023-05-08T15:23:30.935Z,101937.16
2023-05-08T15:25:59.432Z,101938.47
2023-05-08T15:28:28.232Z,101941.53
2023-05-08T15:30:58.485Z,101945.88
2023-05-08T15:33:28.106Z,101935.09
2023-05-08T15:35:56.567Z,101944.47
2023-05-08T15:38:25.232Z,101942.72
2023-05-08T15:40:54.004Z,101937.38
2023-05-08T15:43:23.543Z,101944.78
2023-05-08T15:45:52.625Z,101947.44
2023-05-08T15:48:23.534Z,101938.16
2023-05-08T15:50:51.915Z,101951.00
2023-05-08T15:53:20.877Z,101934.19
2023-05-08T15:55:49.329Z,101951.72
2023-05-08T15:58:17.779Z,101953.56
2023-05-08T16:00:46.381Z,101949.66
2023-05-08T16:03:15.021Z,101953.28
2023-05-08T16:05:44.968Z,101952.84
2023-05-08T16:08:13.862Z,101956.50
2023-05-08T16:10:42.923Z,101959.06
2023-05-08T16:13:11.372Z,101961.16
2023-05-08T16:15:40.887Z,101952.25
2023-05-08T16:18:09.559Z,101947.53
2023-05-08T16:20:38.063Z,101946.34
2023-05-08T16:23:08.654Z,101944.94
2023-05-08T16:25:37.064Z,101946.78
2023-05-08T16:28:07.238Z,101946.81
2023-05-08T16:30:35.669Z,101947.56
2023-05-08T16:33:04.264Z,101938.38
2023-05-08T16:35:33.510Z,101940.47
2023-05-08T16:38:03.932Z,101942.38
2023-05-08T16:40:34.325Z,101941.41
2023-05-08T16:43:03.622Z,101945.91
2023-05-08T16:45:32.041Z,101942.88
2023-05-08T16:48:09.735Z,101947.34
2023-05-08T16:50:38.283Z,101942.66
2023-05-08T16:53:06.766Z,101946.59
2023-05-08T16:55:36.662Z,101942.56
2023-05-08T16:58:07.371Z,101941.16
2023-05-08T17:00:35.806Z,101941.59
2023-05-08T17:03:05.855Z,101943.22
2023-05-08T17:05:35.726Z,101943.16
2023-05-08T17:08:04.166Z,101945.72
2023-05-08T17:10:32.777Z,101942.91
2023-05-08T17:13:02.773Z,101937.34
2023-05-08T17:15:31.255Z,101936.09
2023-05-08T17:17:59.633Z,101951.59
2023-05-08T17:20:28.670Z,101946.59
2023-05-08T17:22:57.577Z,101954.06
2023-05-08T17:25:26.788Z,101955.97
2023-05-08T17:27:56.320Z,101949.91
2023-05-08T17:30:27.612Z,101951.84
2023-05-08T17:32:56.823Z,101954.56
2023-05-08T17:35:26.554Z,101952.00
2023-05-08T17:37:55.357Z,101952.94
2023-05-08T17:40:26.686Z,101952.03
2023-05-08T17:42:55.265Z,101958.16
2023-05-08T17:45:25.329Z,101949.16
2023-05-08T17:47:53.972Z,101954.41
2023-05-08T17:50:23.143Z,101945.47
2023-05-08T17:52:51.698Z,101941.00
2023-05-08T17:55:20.269Z,101943.69
2023-05-08T17:57:48.827Z,101943.63
2023-05-08T18:00:18.463Z,101946.25
2023-05-08T18:02:48.275Z,101939.16
2023-05-08T18:05:16.893Z,101940.22
2023-05-08T18:07:45.304Z,101944.78
2023-05-08T18:10:13.825Z,101947.59
2023-05-08T18:12:42.590Z,101944.97
2023-05-08T18:15:12.263Z,101945.09
2023-05-08T18:17:41.046Z,101936.34
2023-05-08T18:20:12.393Z,101930.28
2023-05-08T18:22:41.045Z,101934.94
2023-05-08T18:25:10.422Z,101936.91
2023-05-08T18:27:38.810Z,101935.41
2023-05-08T18:30:10.093Z,101937.50
2023-05-08T18:32:38.516Z,101935.94
2023-05-08T18:35:11.656Z,101942.38
2023-05-08T18:37:39.950Z,101943.47
2023-05-08T18:40:10.122Z,101939.19
2023-05-08T18:42:38.586Z,101946.41
2023-05-08T18:45:09.161Z,101942.06
2023-05-08T18:47:37.534Z,101951.03
2023-05-08T18:50:11.773Z,101943.91
2023-05-08T18:52:40.856Z,101940.41
2023-05-08T18:55:10.430Z,101933.31
2023-05-08T18:57:39.219Z,101937.78
2023-05-08T19:00:09.612Z,101941.31
2023-05-08T19:02:38.183Z,101930.69
2023-05-08T19:05:09.195Z,101934.25
2023-05-08T19:07:39.187Z,101928.16
2023-05-08T19:10:10.016Z,101927.41
2023-05-08T19:12:38.509Z,101922.16
2023-05-08T19:15:09.449Z,101926.72
2023-05-08T19:17:38.094Z,101927.69
2023-05-08T19:20:09.752Z,101927.78
2023-05-08T19:22:39.838Z,101922.53
2023-05-08T19:25:09.053Z,101923.50
2023-05-08T19:27:37.500Z,101927.25
2023-05-08T19:30:08.528Z,101925.56
2023-05-08T19:32:37.189Z,101912.44
2023-05-08T19:35:06.781Z,101926.81
2023-05-08T19:37:35.439Z,101936.63
2023-05-08T19:40:06.055Z,101938.47
2023-05-08T19:42:34.657Z,101942.91
2023-05-08T19:45:03.136Z,101940.28
2023-05-08T19:47:31.953Z,101944.72
2023-05-08T19:50:00.425Z,101952.75
2023-05-08T19:52:28.978Z,101969.66
2023-05-08T19:54:58.656Z,101960.81
2023-05-08T19:57:28.804Z,101959.09
2023-05-08T19:59:58.072Z,101957.44
2023-05-08T20:02:28.191Z,101951.25
2023-05-08T20:07:29.654Z,101947.03
2023-05-08T20:09:58.769Z,101946.41
2023-05-08T20:12:28.894Z,101952.81
2023-05-08T20:14:57.977Z,101949.56
2023-05-08T20:17:26.939Z,101936.44
2023-05-08T20:19:55.560Z,101941.00
2023-05-08T20:22:25.441Z,101934.03
2023-05-08T20:24:53.979Z,101927.06
2023-05-08T20:27:23.481Z,101919.13
2023-05-08T20:29:53.767Z,101920.94
2023-05-08T20:32:22.965Z,101918.38
2023-05-08T20:34:52.056Z,101912.19
2023-05-08T20:37:20.889Z,101909.63
2023-05-08T20:39:49.256Z,101911.44
2023-05-08T20:42:17.719Z,101900.88
2023-05-08T20:44:46.100Z,101894.78
2023-05-08T20:47:15.947Z,101901.06
2023-05-08T20:49:44.266Z,101896.72
2023-05-08T20:52:12.558Z,101903.84
2023-05-08T20:54:41.104Z,101895.88
2023-05-08T20:57:09.689Z,101896.81
2023-05-08T20:59:39.948Z,101890.66
2023-05-08T21:02:08.749Z,101887.19
2023-05-08T21:04:38.570Z,101881.97
2023-05-08T21:07:07.205Z,101883.81
2023-05-08T21:09:35.735Z,101880.31
2023-05-08T21:12:04.311Z,101882.13
2023-05-08T21:14:32.802Z,101876.81
2023-05-08T21:17:01.398Z,101879.47
2023-05-08T21:19:31.267Z,101878.59
2023-05-08T21:22:01.028Z,101871.47
2023-05-08T21:24:29.708Z,101871.41
2023-05-08T21:26:59.651Z,101874.06
2023-05-08T21:29:28.598Z,101864.31
2023-05-08T21:31:57.682Z,101871.34
2023-05-08T21:34:26.707Z,101870.47
2023-05-08T21:36:55.348Z,101874.88
2023-05-08T21:39:25.253Z,101876.66
2023-05-08T21:41:53.678Z,101882.91
2023-05-08T21:44:22.706Z,101876.78
2023-05-08T21:46:51.639Z,101876.88
2023-05-08T21:49:23.751Z,101871.66
2023-05-08T21:51:53.030Z,101876.16
2023-05-08T21:54:24.679Z,101864.72
2023-05-08T21:56:55.423Z,101858.63
2023-05-08T21:59:23.787Z,101859.50
2023-05-08T22:01:53.086Z,101855.09
2023-05-08T22:04:22.301Z,101854.19
2023-05-08T22:06:50.847Z,101862.13
2023-05-08T22:09:19.707Z,101853.25
2023-05-08T22:11:48.152Z,101854.13
2023-05-08T22:14:17.935Z,101860.28
2023-05-08T22:16:46.351Z,101859.38
2023-05-08T22:19:14.653Z,101853.19
2023-05-08T22:21:43.566Z,101855.84
2023-05-08T22:24:12.446Z,101850.53
2023-05-08T22:26:40.746Z,101849.69
2023-05-08T22:29:12.034Z,101845.25
2023-05-08T22:31:42.005Z,101841.72
2023-05-08T22:34:10.517Z,101839.06
2023-05-08T22:36:39.143Z,101837.34
2023-05-08T22:39:10.114Z,101831.13
2023-05-08T22:41:38.832Z,101834.72
2023-05-08T22:44:08.044Z,101832.09
2023-05-08T22:46:37.090Z,101829.47
2023-05-08T22:49:07.348Z,101826.84
2023-05-08T22:51:36.201Z,101827.78
2023-05-08T22:54:04.653Z,101820.78
2023-05-08T22:56:33.064Z,101823.53
2023-05-08T22:59:01.360Z,101817.41
2023-05-08T23:01:29.806Z,101821.03
2023-05-08T23:03:58.488Z,101812.28
2023-05-08T23:06:28.521Z,101816.81
2023-05-08T23:08:56.860Z,101817.75
2023-05-08T23:11:26.891Z,101812.56
2023-05-08T23:13:55.484Z,101813.50
2023-05-08T23:16:23.956Z,101805.56
2023-05-08T23:18:53.019Z,101806.47
2023-05-08T23:21:21.696Z,101799.41
2023-05-08T23:23:52.910Z,101791.53
2023-05-08T23:26:22.288Z,101795.13
2023-05-08T23:28:50.704Z,101791.66
2023-05-08T23:31:19.845Z,101789.88
2023-05-08T23:33:48.445Z,101790.78
2023-05-08T23:36:17.000Z,101789.00
2023-05-08T23:38:45.505Z,101791.56
2023-05-08T23:41:15.467Z,101783.53
2023-05-08T23:43:43.904Z,101783.41
2023-05-08T23:46:12.272Z,101779.81
2023-05-08T23:48:40.936Z,101777.13
2023-05-08T23:51:12.213Z,101781.53
2023-05-08T23:53:40.930Z,101780.63
2023-05-08T23:56:09.657Z,101779.72
2023-05-08T23:58:39.805Z,101774.38
